sensor_id;sensor_type;location;lat;lon;timestamp;P1;durP1;ratioP1;P2;durP2;ratioP2
58918;SDS011;44704;50.122;19.932;2023-02-08T00:00:50;45.00;;;18.90;;
58918;SDS011;44704;50.122;19.932;2023-02-08T00:03:25;49.40;;;20.30;;
58918;SDS011;44704;50.122;19.932;2023-02-08T00:05:54;51.00;;;21.60;;
58918;SDS011;44704;50.122;19.932;2023-02-08T00:08:21;50.40;;;21.90;;
58918;SDS011;44704;50.122;19.932;2023-02-08T00:10:48;53.80;;;23.40;;
58918;SDS011;44704;50.122;19.932;2023-02-08T00:13:15;46.60;;;21.90;;
58918;SDS011;44704;50.122;19.932;2023-02-08T00:15:43;52.10;;;23.20;;
58918;SDS011;44704;50.122;19.932;2023-02-08T00:18:12;50.10;;;21.80;;
58918;SDS011;44704;50.122;19.932;2023-02-08T00:20:42;52.10;;;23.90;;
58918;SDS011;44704;50.122;19.932;2023-02-08T00:23:09;51.90;;;22.10;;
58918;SDS011;44704;50.122;19.932;2023-02-08T00:25:37;49.90;;;21.30;;
58918;SDS011;44704;50.122;19.932;2023-02-08T00:28:06;47.50;;;20.30;;
58918;SDS011;44704;50.122;19.932;2023-02-08T00:30:37;45.90;;;21.50;;
58918;SDS011;44704;50.122;19.932;2023-02-08T00:33:04;51.10;;;22.60;;
58918;SDS011;44704;50.122;19.932;2023-02-08T00:35:31;50.10;;;22.60;;
58918;SDS011;44704;50.122;19.932;2023-02-08T00:37:58;49.40;;;22.90;;
58918;SDS011;44704;50.122;19.932;2023-02-08T00:40:26;49.60;;;22.40;;
58918;SDS011;44704;50.122;19.932;2023-02-08T00:42:53;49.70;;;22.30;;
58918;SDS011;44704;50.122;19.932;2023-02-08T00:45:20;51.00;;;21.70;;
58918;SDS011;44704;50.122;19.932;2023-02-08T00:47:47;46.60;;;20.40;;
58918;SDS011;44704;50.122;19.932;2023-02-08T00:50:15;46.80;;;22.50;;
58918;SDS011;44704;50.122;19.932;2023-02-08T00:52:42;47.30;;;21.50;;
58918;SDS011;44704;50.122;19.932;2023-02-08T00:55:10;46.00;;;21.80;;
58918;SDS011;44704;50.122;19.932;2023-02-08T00:57:38;42.10;;;19.50;;
58918;SDS011;44704;50.122;19.932;2023-02-08T01:00:06;41.50;;;20.90;;
58918;SDS011;44704;50.122;19.932;2023-02-08T01:02:37;38.20;;;19.50;;
58918;SDS011;44704;50.122;19.932;2023-02-08T01:05:05;45.40;;;20.50;;
58918;SDS011;44704;50.122;19.932;2023-02-08T01:07:32;43.70;;;20.30;;
58918;SDS011;44704;50.122;19.932;2023-02-08T01:10:02;45.50;;;20.70;;
58918;SDS011;44704;50.122;19.932;2023-02-08T01:12:31;41.80;;;21.40;;
58918;SDS011;44704;50.122;19.932;2023-02-08T01:14:59;43.00;;;22.00;;
58918;SDS011;44704;50.122;19.932;2023-02-08T01:17:26;47.80;;;22.10;;
58918;SDS011;44704;50.122;19.932;2023-02-08T01:19:53;46.50;;;22.00;;
58918;SDS011;44704;50.122;19.932;2023-02-08T01:22:20;45.40;;;21.70;;
58918;SDS011;44704;50.122;19.932;2023-02-08T01:24:47;53.40;;;24.60;;
58918;SDS011;44704;50.122;19.932;2023-02-08T01:27:14;53.50;;;27.50;;
58918;SDS011;44704;50.122;19.932;2023-02-08T01:29:41;61.70;;;27.30;;
58918;SDS011;44704;50.122;19.932;2023-02-08T01:32:08;59.30;;;27.50;;
58918;SDS011;44704;50.122;19.932;2023-02-08T01:34:34;55.20;;;25.30;;
58918;SDS011;44704;50.122;19.932;2023-02-08T01:37:01;57.80;;;27.00;;
58918;SDS011;44704;50.122;19.932;2023-02-08T01:39:28;49.80;;;21.50;;
58918;SDS011;44704;50.122;19.932;2023-02-08T01:41:55;47.80;;;23.00;;
58918;SDS011;44704;50.122;19.932;2023-02-08T01:47:54;45.40;;;19.10;;
58918;SDS011;44704;50.122;19.932;2023-02-08T01:50:33;41.90;;;19.20;;
58918;SDS011;44704;50.122;19.932;2023-02-08T01:55:37;43.90;;;18.80;;
58918;SDS011;44704;50.122;19.932;2023-02-08T01:58:09;41.50;;;18.60;;
58918;SDS011;44704;50.122;19.932;2023-02-08T02:03:05;36.30;;;17.30;;
58918;SDS011;44704;50.122;19.932;2023-02-08T02:05:44;43.40;;;20.50;;
58918;SDS011;44704;50.122;19.932;2023-02-08T02:08:14;49.20;;;22.60;;
58918;SDS011;44704;50.122;19.932;2023-02-08T02:10:42;42.30;;;20.50;;
58918;SDS011;44704;50.122;19.932;2023-02-08T02:13:11;50.50;;;19.90;;
58918;SDS011;44704;50.122;19.932;2023-02-08T02:15:43;45.60;;;20.50;;
58918;SDS011;44704;50.122;19.932;2023-02-08T02:18:12;44.60;;;19.30;;
58918;SDS011;44704;50.122;19.932;2023-02-08T02:29:44;41.70;;;21.10;;
58918;SDS011;44704;50.122;19.932;2023-02-08T02:35:29;46.60;;;20.90;;
58918;SDS011;44704;50.122;19.932;2023-02-08T02:44:17;50.90;;;22.90;;
58918;SDS011;44704;50.122;19.932;2023-02-08T02:49:34;50.10;;;22.40;;
58918;SDS011;44704;50.122;19.932;2023-02-08T02:52:10;49.50;;;22.20;;
58918;SDS011;44704;50.122;19.932;2023-02-08T02:57:12;57.00;;;23.90;;
58918;SDS011;44704;50.122;19.932;2023-02-08T02:59:43;51.50;;;24.50;;
58918;SDS011;44704;50.122;19.932;2023-02-08T03:02:12;51.30;;;23.80;;
58918;SDS011;44704;50.122;19.932;2023-02-08T03:07:15;50.60;;;23.20;;
58918;SDS011;44704;50.122;19.932;2023-02-08T03:10:05;47.40;;;22.00;;
58918;SDS011;44704;50.122;19.932;2023-02-08T03:23:27;53.80;;;24.00;;
58918;SDS011;44704;50.122;19.932;2023-02-08T03:28:42;55.10;;;26.00;;
58918;SDS011;44704;50.122;19.932;2023-02-08T03:34:45;52.80;;;24.80;;
58918;SDS011;44704;50.122;19.932;2023-02-08T03:37:14;56.00;;;24.40;;
58918;SDS011;44704;50.122;19.932;2023-02-08T03:39:50;58.60;;;25.40;;
58918;SDS011;44704;50.122;19.932;2023-02-08T03:42:24;55.80;;;24.70;;
58918;SDS011;44704;50.122;19.932;2023-02-08T03:44:56;55.80;;;24.70;;
58918;SDS011;44704;50.122;19.932;2023-02-08T03:47:28;56.70;;;25.50;;
58918;SDS011;44704;50.122;19.932;2023-02-08T03:50:02;57.90;;;25.50;;
58918;SDS011;44704;50.122;19.932;2023-02-08T03:52:34;55.20;;;26.20;;
58918;SDS011;44704;50.122;19.932;2023-02-08T03:57:34;52.60;;;25.60;;
58918;SDS011;44704;50.122;19.932;2023-02-08T04:00:07;58.10;;;25.70;;
58918;SDS011;44704;50.122;19.932;2023-02-08T04:03:04;56.90;;;26.50;;
58918;SDS011;44704;50.122;19.932;2023-02-08T04:05:33;57.80;;;26.80;;
58918;SDS011;44704;50.122;19.932;2023-02-08T04:08:00;52.00;;;24.80;;
58918;SDS011;44704;50.122;19.932;2023-02-08T04:10:27;54.90;;;27.10;;
58918;SDS011;44704;50.122;19.932;2023-02-08T04:12:54;50.70;;;25.40;;
58918;SDS011;44704;50.122;19.932;2023-02-08T04:15:21;56.80;;;25.80;;
58918;SDS011;44704;50.122;19.932;2023-02-08T04:17:48;58.60;;;25.90;;
58918;SDS011;44704;50.122;19.932;2023-02-08T04:20:16;57.80;;;26.00;;
58918;SDS011;44704;50.122;19.932;2023-02-08T04:22:43;54.10;;;25.30;;
58918;SDS011;44704;50.122;19.932;2023-02-08T04:25:10;57.70;;;26.20;;
58918;SDS011;44704;50.122;19.932;2023-02-08T04:27:37;51.90;;;26.90;;
58918;SDS011;44704;50.122;19.932;2023-02-08T04:30:04;59.60;;;26.40;;
58918;SDS011;44704;50.122;19.932;2023-02-08T04:32:31;58.60;;;28.40;;
58918;SDS011;44704;50.122;19.932;2023-02-08T04:34:58;55.10;;;26.40;;
58918;SDS011;44704;50.122;19.932;2023-02-08T04:37:25;55.40;;;27.20;;
58918;SDS011;44704;50.122;19.932;2023-02-08T04:39:52;56.90;;;25.40;;
58918;SDS011;44704;50.122;19.932;2023-02-08T04:42:19;57.90;;;25.70;;
58918;SDS011;44704;50.122;19.932;2023-02-08T04:44:46;52.00;;;24.60;;
58918;SDS011;44704;50.122;19.932;2023-02-08T04:47:13;52.50;;;24.40;;
58918;SDS011;44704;50.122;19.932;2023-02-08T04:49:40;56.80;;;25.70;;
58918;SDS011;44704;50.122;19.932;2023-02-08T04:52:07;56.00;;;26.10;;
58918;SDS011;44704;50.122;19.932;2023-02-08T04:54:34;52.40;;;24.60;;
58918;SDS011;44704;50.122;19.932;2023-02-08T04:57:01;55.90;;;25.10;;
58918;SDS011;44704;50.122;19.932;2023-02-08T04:59:28;49.30;;;23.90;;
58918;SDS011;44704;50.122;19.932;2023-02-08T05:01:55;50.60;;;24.30;;
58918;SDS011;44704;50.122;19.932;2023-02-08T05:04:22;51.80;;;23.90;;
58918;SDS011;44704;50.122;19.932;2023-02-08T05:06:48;57.30;;;26.70;;
58918;SDS011;44704;50.122;19.932;2023-02-08T05:09:15;57.30;;;27.80;;
58918;SDS011;44704;50.122;19.932;2023-02-08T05:11:42;54.70;;;25.90;;
58918;SDS011;44704;50.122;19.932;2023-02-08T05:14:09;56.10;;;26.60;;
58918;SDS011;44704;50.122;19.932;2023-02-08T05:16:36;49.60;;;24.40;;
58918;SDS011;44704;50.122;19.932;2023-02-08T05:19:03;58.10;;;26.90;;
58918;SDS011;44704;50.122;19.932;2023-02-08T05:21:30;52.60;;;24.90;;
58918;SDS011;44704;50.122;19.932;2023-02-08T05:23:57;55.30;;;26.80;;
58918;SDS011;44704;50.122;19.932;2023-02-08T05:26:24;53.90;;;27.10;;
58918;SDS011;44704;50.122;19.932;2023-02-08T05:28:51;56.70;;;26.90;;
58918;SDS011;44704;50.122;19.932;2023-02-08T05:31:21;54.10;;;26.20;;
58918;SDS011;44704;50.122;19.932;2023-02-08T05:33:51;53.00;;;24.50;;
58918;SDS011;44704;50.122;19.932;2023-02-08T05:36:18;51.60;;;24.60;;
58918;SDS011;44704;50.122;19.932;2023-02-08T05:38:46;58.80;;;24.30;;
58918;SDS011;44704;50.122;19.932;2023-02-08T05:41:14;53.40;;;24.10;;
58918;SDS011;44704;50.122;19.932;2023-02-08T05:43:41;52.30;;;25.10;;
58918;SDS011;44704;50.122;19.932;2023-02-08T05:46:09;56.30;;;24.40;;
58918;SDS011;44704;50.122;19.932;2023-02-08T05:48:37;56.90;;;26.50;;
58918;SDS011;44704;50.122;19.932;2023-02-08T05:51:04;50.90;;;26.00;;
58918;SDS011;44704;50.122;19.932;2023-02-08T05:53:31;50.50;;;24.50;;
58918;SDS011;44704;50.122;19.932;2023-02-08T05:55:57;54.60;;;24.80;;
58918;SDS011;44704;50.122;19.932;2023-02-08T05:58:24;50.10;;;23.80;;
58918;SDS011;44704;50.122;19.932;2023-02-08T06:00:52;60.70;;;26.20;;
58918;SDS011;44704;50.122;19.932;2023-02-08T06:03:19;51.10;;;24.40;;
58918;SDS011;44704;50.122;19.932;2023-02-08T06:05:46;53.30;;;25.40;;
58918;SDS011;44704;50.122;19.932;2023-02-08T06:08:13;54.70;;;25.70;;
58918;SDS011;44704;50.122;19.932;2023-02-08T06:10:40;62.00;;;27.20;;
58918;SDS011;44704;50.122;19.932;2023-02-08T06:13:07;63.20;;;27.10;;
58918;SDS011;44704;50.122;19.932;2023-02-08T06:15:34;58.60;;;26.40;;
58918;SDS011;44704;50.122;19.932;2023-02-08T06:18:01;63.20;;;29.80;;
58918;SDS011;44704;50.122;19.932;2023-02-08T06:20:29;63.20;;;27.60;;
58918;SDS011;44704;50.122;19.932;2023-02-08T06:22:56;59.70;;;28.40;;
58918;SDS011;44704;50.122;19.932;2023-02-08T06:25:23;64.70;;;29.70;;
58918;SDS011;44704;50.122;19.932;2023-02-08T06:27:50;63.60;;;29.80;;
58918;SDS011;44704;50.122;19.932;2023-02-08T06:30:17;67.20;;;29.30;;
58918;SDS011;44704;50.122;19.932;2023-02-08T06:32:44;72.40;;;31.70;;
58918;SDS011;44704;50.122;19.932;2023-02-08T06:35:11;67.20;;;29.60;;
58918;SDS011;44704;50.122;19.932;2023-02-08T06:37:39;66.70;;;31.90;;
58918;SDS011;44704;50.122;19.932;2023-02-08T06:40:06;76.70;;;31.90;;
58918;SDS011;44704;50.122;19.932;2023-02-08T06:42:34;71.50;;;32.40;;
58918;SDS011;44704;50.122;19.932;2023-02-08T06:45:01;72.50;;;32.80;;
58918;SDS011;44704;50.122;19.932;2023-02-08T06:47:28;72.10;;;35.80;;
58918;SDS011;44704;50.122;19.932;2023-02-08T06:49:55;75.10;;;34.40;;
58918;SDS011;44704;50.122;19.932;2023-02-08T06:52:22;74.60;;;33.80;;
58918;SDS011;44704;50.122;19.932;2023-02-08T06:54:49;73.70;;;35.60;;
58918;SDS011;44704;50.122;19.932;2023-02-08T06:57:16;78.10;;;34.90;;
58918;SDS011;44704;50.122;19.932;2023-02-08T06:59:44;72.90;;;33.90;;
58918;SDS011;44704;50.122;19.932;2023-02-08T07:02:12;66.50;;;32.40;;
58918;SDS011;44704;50.122;19.932;2023-02-08T07:04:40;70.70;;;32.90;;
58918;SDS011;44704;50.122;19.932;2023-02-08T07:07:06;67.60;;;31.60;;
58918;SDS011;44704;50.122;19.932;2023-02-08T07:09:34;67.80;;;31.80;;
58918;SDS011;44704;50.122;19.932;2023-02-08T07:12:02;67.00;;;31.00;;
58918;SDS011;44704;50.122;19.932;2023-02-08T07:14:31;65.10;;;29.40;;
58918;SDS011;44704;50.122;19.932;2023-02-08T07:16:59;72.50;;;34.30;;
58918;SDS011;44704;50.122;19.932;2023-02-08T07:19:27;72.40;;;32.60;;
58918;SDS011;44704;50.122;19.932;2023-02-08T07:21:55;66.30;;;31.80;;
58918;SDS011;44704;50.122;19.932;2023-02-08T07:24:23;73.90;;;33.80;;
58918;SDS011;44704;50.122;19.932;2023-02-08T07:26:50;73.50;;;33.70;;
58918;SDS011;44704;50.122;19.932;2023-02-08T07:29:17;72.80;;;33.50;;
58918;SDS011;44704;50.122;19.932;2023-02-08T07:31:44;77.10;;;34.00;;
58918;SDS011;44704;50.122;19.932;2023-02-08T07:34:12;71.70;;;33.30;;
58918;SDS011;44704;50.122;19.932;2023-02-08T07:36:39;72.00;;;31.80;;
58918;SDS011;44704;50.122;19.932;2023-02-08T07:39:06;67.80;;;31.20;;
58918;SDS011;44704;50.122;19.932;2023-02-08T07:41:33;63.70;;;28.50;;
58918;SDS011;44704;50.122;19.932;2023-02-08T07:44:00;64.50;;;29.30;;
58918;SDS011;44704;50.122;19.932;2023-02-08T07:46:27;67.00;;;29.70;;
58918;SDS011;44704;50.122;19.932;2023-02-08T07:48:54;58.60;;;27.70;;
58918;SDS011;44704;50.122;19.932;2023-02-08T07:51:20;58.90;;;26.80;;
58918;SDS011;44704;50.122;19.932;2023-02-08T07:53:48;57.80;;;26.40;;
58918;SDS011;44704;50.122;19.932;2023-02-08T07:56:16;55.70;;;25.40;;
58918;SDS011;44704;50.122;19.932;2023-02-08T07:58:43;52.60;;;25.20;;
58918;SDS011;44704;50.122;19.932;2023-02-08T08:01:10;60.10;;;27.30;;
58918;SDS011;44704;50.122;19.932;2023-02-08T08:03:37;57.60;;;25.60;;
58918;SDS011;44704;50.122;19.932;2023-02-08T08:06:04;53.50;;;24.70;;
58918;SDS011;44704;50.122;19.932;2023-02-08T08:08:31;54.50;;;25.00;;
58918;SDS011;44704;50.122;19.932;2023-02-08T08:10:58;55.40;;;25.30;;
58918;SDS011;44704;50.122;19.932;2023-02-08T08:13:25;49.50;;;25.10;;
58918;SDS011;44704;50.122;19.932;2023-02-08T08:15:52;49.50;;;21.40;;
58918;SDS011;44704;50.122;19.932;2023-02-08T08:18:19;44.30;;;20.90;;
58918;SDS011;44704;50.122;19.932;2023-02-08T08:20:46;48.90;;;22.20;;
58918;SDS011;44704;50.122;19.932;2023-02-08T08:23:13;44.20;;;22.40;;
58918;SDS011;44704;50.122;19.932;2023-02-08T08:25:42;43.60;;;21.10;;
58918;SDS011;44704;50.122;19.932;2023-02-08T08:28:09;51.70;;;23.40;;
58918;SDS011;44704;50.122;19.932;2023-02-08T08:30:35;48.40;;;21.30;;
58918;SDS011;44704;50.122;19.932;2023-02-08T08:33:02;48.60;;;21.50;;
58918;SDS011;44704;50.122;19.932;2023-02-08T08:35:29;55.30;;;21.60;;
58918;SDS011;44704;50.122;19.932;2023-02-08T08:37:56;47.80;;;23.00;;
58918;SDS011;44704;50.122;19.932;2023-02-08T08:40:23;48.10;;;21.70;;
58918;SDS011;44704;50.122;19.932;2023-02-08T08:42:50;43.40;;;22.00;;
58918;SDS011;44704;50.122;19.932;2023-02-08T08:45:17;53.30;;;23.40;;
58918;SDS011;44704;50.122;19.932;2023-02-08T08:47:44;43.80;;;21.60;;
58918;SDS011;44704;50.122;19.932;2023-02-08T08:50:11;43.50;;;20.40;;
58918;SDS011;44704;50.122;19.932;2023-02-08T08:52:38;50.60;;;21.50;;
58918;SDS011;44704;50.122;19.932;2023-02-08T08:55:06;46.40;;;21.60;;
58918;SDS011;44704;50.122;19.932;2023-02-08T08:57:33;43.80;;;19.90;;
58918;SDS011;44704;50.122;19.932;2023-02-08T09:00:00;41.60;;;19.30;;
58918;SDS011;44704;50.122;19.932;2023-02-08T09:02:27;44.50;;;20.20;;
58918;SDS011;44704;50.122;19.932;2023-02-08T09:04:55;39.90;;;21.00;;
58918;SDS011;44704;50.122;19.932;2023-02-08T09:07:25;44.00;;;21.70;;
58918;SDS011;44704;50.122;19.932;2023-02-08T09:09:52;45.40;;;22.00;;
58918;SDS011;44704;50.122;19.932;2023-02-08T09:12:19;45.50;;;21.80;;
58918;SDS011;44704;50.122;19.932;2023-02-08T09:14:46;48.50;;;21.90;;
58918;SDS011;44704;50.122;19.932;2023-02-08T09:17:14;43.50;;;20.00;;
58918;SDS011;44704;50.122;19.932;2023-02-08T09:19:41;46.40;;;20.00;;
58918;SDS011;44704;50.122;19.932;2023-02-08T09:22:08;41.10;;;20.50;;
58918;SDS011;44704;50.122;19.932;2023-02-08T09:24:35;41.30;;;21.10;;
58918;SDS011;44704;50.122;19.932;2023-02-08T09:27:02;45.90;;;20.60;;
58918;SDS011;44704;50.122;19.932;2023-02-08T09:29:29;39.00;;;20.10;;
58918;SDS011;44704;50.122;19.932;2023-02-08T09:31:58;37.50;;;17.80;;
58918;SDS011;44704;50.122;19.932;2023-02-08T09:34:25;35.80;;;18.20;;
58918;SDS011;44704;50.122;19.932;2023-02-08T09:36:53;40.20;;;19.00;;
58918;SDS011;44704;50.122;19.932;2023-02-08T09:39:21;33.30;;;16.90;;
58918;SDS011;44704;50.122;19.932;2023-02-08T09:42:12;35.20;;;16.60;;
58918;SDS011;44704;50.122;19.932;2023-02-08T09:44:50;34.20;;;16.90;;
58918;SDS011;44704;50.122;19.932;2023-02-08T09:47:33;33.00;;;16.40;;
58918;SDS011;44704;50.122;19.932;2023-02-08T09:50:27;35.10;;;16.60;;
58918;SDS011;44704;50.122;19.932;2023-02-08T09:53:01;33.80;;;15.60;;
58918;SDS011;44704;50.122;19.932;2023-02-08T09:55:48;27.90;;;14.70;;
58918;SDS011;44704;50.122;19.932;2023-02-08T10:01:06;23.90;;;12.50;;
58918;SDS011;44704;50.122;19.932;2023-02-08T10:03:44;28.50;;;13.50;;
58918;SDS011;44704;50.122;19.932;2023-02-08T10:06:16;28.30;;;13.50;;
58918;SDS011;44704;50.122;19.932;2023-02-08T10:08:46;24.70;;;12.60;;
58918;SDS011;44704;50.122;19.932;2023-02-08T10:12:24;24.60;;;12.70;;
58918;SDS011;44704;50.122;19.932;2023-02-08T10:20:18;27.50;;;12.10;;
58918;SDS011;44704;50.122;19.932;2023-02-08T10:34:46;26.20;;;12.80;;
58918;SDS011;44704;50.122;19.932;2023-02-08T10:37:23;30.20;;;14.30;;
58918;SDS011;44704;50.122;19.932;2023-02-08T10:40:12;28.30;;;14.10;;
58918;SDS011;44704;50.122;19.932;2023-02-08T10:43:33;27.50;;;14.10;;
58918;SDS011;44704;50.122;19.932;2023-02-08T10:46:17;27.50;;;13.00;;
58918;SDS011;44704;50.122;19.932;2023-02-08T10:49:13;31.10;;;14.70;;
58918;SDS011;44704;50.122;19.932;2023-02-08T10:51:47;26.50;;;13.40;;
58918;SDS011;44704;50.122;19.932;2023-02-08T10:54:16;30.60;;;15.00;;
58918;SDS011;44704;50.122;19.932;2023-02-08T10:59:27;31.40;;;15.50;;
58918;SDS011;44704;50.122;19.932;2023-02-08T11:07:28;27.50;;;13.80;;
58918;SDS011;44704;50.122;19.932;2023-02-08T11:12:58;28.90;;;14.80;;
58918;SDS011;44704;50.122;19.932;2023-02-08T11:18:29;27.50;;;14.40;;
58918;SDS011;44704;50.122;19.932;2023-02-08T11:21:42;28.30;;;14.90;;
58918;SDS011;44704;50.122;19.932;2023-02-08T11:24:19;23.70;;;12.50;;
58918;SDS011;44704;50.122;19.932;2023-02-08T11:27:01;25.00;;;13.60;;
58918;SDS011;44704;50.122;19.932;2023-02-08T11:29:30;25.70;;;12.60;;
58918;SDS011;44704;50.122;19.932;2023-02-08T11:31:58;27.30;;;13.20;;
58918;SDS011;44704;50.122;19.932;2023-02-08T11:34:35;27.80;;;13.50;;
58918;SDS011;44704;50.122;19.932;2023-02-08T11:37:14;30.60;;;13.60;;
58918;SDS011;44704;50.122;19.932;2023-02-08T11:39:49;27.20;;;14.10;;
58918;SDS011;44704;50.122;19.932;2023-02-08T11:42:21;29.80;;;15.00;;
58918;SDS011;44704;50.122;19.932;2023-02-08T11:44:50;25.40;;;12.90;;
58918;SDS011;44704;50.122;19.932;2023-02-08T11:47:30;29.30;;;14.60;;
58918;SDS011;44704;50.122;19.932;2023-02-08T11:50:04;23.40;;;12.00;;
58918;SDS011;44704;50.122;19.932;2023-02-08T11:52:38;22.60;;;12.00;;
58918;SDS011;44704;50.122;19.932;2023-02-08T11:55:13;28.50;;;14.60;;
58918;SDS011;44704;50.122;19.932;2023-02-08T11:57:52;24.10;;;12.70;;
58918;SDS011;44704;50.122;19.932;2023-02-08T12:00:27;22.90;;;13.10;;
58918;SDS011;44704;50.122;19.932;2023-02-08T12:02:57;25.20;;;13.40;;
58918;SDS011;44704;50.122;19.932;2023-02-08T12:05:52;23.10;;;12.80;;
58918;SDS011;44704;50.122;19.932;2023-02-08T12:08:24;28.10;;;14.50;;
58918;SDS011;44704;50.122;19.932;2023-02-08T12:16:48;22.60;;;12.40;;
58918;SDS011;44704;50.122;19.932;2023-02-08T12:22:23;24.70;;;12.70;;
58918;SDS011;44704;50.122;19.932;2023-02-08T12:27:46;24.40;;;12.50;;
58918;SDS011;44704;50.122;19.932;2023-02-08T12:30:31;20.80;;;11.60;;
58918;SDS011;44704;50.122;19.932;2023-02-08T12:38:45;23.30;;;11.50;;
58918;SDS011;44704;50.122;19.932;2023-02-08T12:47:38;25.50;;;13.60;;
58918;SDS011;44704;50.122;19.932;2023-02-08T12:50:21;25.00;;;13.50;;
58918;SDS011;44704;50.122;19.932;2023-02-08T12:52:53;22.70;;;12.00;;
58918;SDS011;44704;50.122;19.932;2023-02-08T12:58:20;23.40;;;13.10;;
58918;SDS011;44704;50.122;19.932;2023-02-08T13:00:59;24.00;;;12.80;;
58918;SDS011;44704;50.122;19.932;2023-02-08T13:03:35;22.80;;;12.90;;
58918;SDS011;44704;50.122;19.932;2023-02-08T13:06:05;23.40;;;13.20;;
58918;SDS011;44704;50.122;19.932;2023-02-08T13:08:42;25.10;;;13.70;;
58918;SDS011;44704;50.122;19.932;2023-02-08T13:11:23;26.00;;;13.80;;
58918;SDS011;44704;50.122;19.932;2023-02-08T13:17:17;25.80;;;15.70;;
58918;SDS011;44704;50.122;19.932;2023-02-08T13:22:43;49.80;;;24.90;;
58918;SDS011;44704;50.122;19.932;2023-02-08T13:25:18;46.90;;;23.10;;
58918;SDS011;44704;50.122;19.932;2023-02-08T13:27:51;40.00;;;21.60;;
58918;SDS011;44704;50.122;19.932;2023-02-08T13:30:19;32.30;;;18.50;;
58918;SDS011;44704;50.122;19.932;2023-02-08T13:32:48;27.80;;;13.70;;
58918;SDS011;44704;50.122;19.932;2023-02-08T13:35:18;23.70;;;13.60;;
58918;SDS011;44704;50.122;19.932;2023-02-08T13:38:15;23.50;;;13.10;;
58918;SDS011;44704;50.122;19.932;2023-02-08T13:40:46;25.60;;;14.20;;
58918;SDS011;44704;50.122;19.932;2023-02-08T13:43:37;27.00;;;14.90;;
58918;SDS011;44704;50.122;19.932;2023-02-08T13:46:09;28.10;;;15.60;;
58918;SDS011;44704;50.122;19.932;2023-02-08T13:48:45;27.90;;;15.20;;
58918;SDS011;44704;50.122;19.932;2023-02-08T13:51:49;24.50;;;14.10;;
58918;SDS011;44704;50.122;19.932;2023-02-08T13:54:17;21.60;;;12.40;;
58918;SDS011;44704;50.122;19.932;2023-02-08T13:56:46;21.20;;;11.80;;
58918;SDS011;44704;50.122;19.932;2023-02-08T13:59:28;18.30;;;12.00;;
58918;SDS011;44704;50.122;19.932;2023-02-08T14:04:48;20.00;;;11.20;;
58918;SDS011;44704;50.122;19.932;2023-02-08T14:10:20;18.20;;;11.10;;
58918;SDS011;44704;50.122;19.932;2023-02-08T14:12:57;22.30;;;12.00;;
58918;SDS011;44704;50.122;19.932;2023-02-08T14:15:32;18.10;;;10.60;;
58918;SDS011;44704;50.122;19.932;2023-02-08T14:18:02;18.60;;;10.00;;
58918;SDS011;44704;50.122;19.932;2023-02-08T14:20:35;18.00;;;9.80;;
58918;SDS011;44704;50.122;19.932;2023-02-08T14:23:24;18.40;;;10.60;;
58918;SDS011;44704;50.122;19.932;2023-02-08T14:25:53;18.30;;;10.60;;
58918;SDS011;44704;50.122;19.932;2023-02-08T14:30:53;15.10;;;9.40;;
58918;SDS011;44704;50.122;19.932;2023-02-08T14:33:39;17.20;;;9.70;;
58918;SDS011;44704;50.122;19.932;2023-02-08T14:36:29;15.90;;;9.80;;
58918;SDS011;44704;50.122;19.932;2023-02-08T14:41:57;19.80;;;11.20;;
58918;SDS011;44704;50.122;19.932;2023-02-08T14:52:59;18.00;;;10.90;;
58918;SDS011;44704;50.122;19.932;2023-02-08T14:55:33;19.40;;;10.70;;
58918;SDS011;44704;50.122;19.932;2023-02-08T14:58:10;21.30;;;11.80;;
58918;SDS011;44704;50.122;19.932;2023-02-08T15:00:39;18.90;;;10.80;;
58918;SDS011;44704;50.122;19.932;2023-02-08T15:03:11;19.00;;;10.20;;
58918;SDS011;44704;50.122;19.932;2023-02-08T15:05:43;19.60;;;11.30;;
58918;SDS011;44704;50.122;19.932;2023-02-08T15:08:32;19.20;;;11.20;;
58918;SDS011;44704;50.122;19.932;2023-02-08T15:10:59;19.40;;;11.00;;
58918;SDS011;44704;50.122;19.932;2023-02-08T15:13:26;20.80;;;11.20;;
58918;SDS011;44704;50.122;19.932;2023-02-08T15:15:55;17.30;;;9.50;;
58918;SDS011;44704;50.122;19.932;2023-02-08T15:18:27;20.40;;;10.40;;
58918;SDS011;44704;50.122;19.932;2023-02-08T15:21:04;20.50;;;11.70;;
58918;SDS011;44704;50.122;19.932;2023-02-08T15:23:40;20.10;;;11.30;;
58918;SDS011;44704;50.122;19.932;2023-02-08T15:26:20;21.80;;;11.60;;
58918;SDS011;44704;50.122;19.932;2023-02-08T15:28:49;20.60;;;12.10;;
58918;SDS011;44704;50.122;19.932;2023-02-08T15:31:17;20.80;;;10.50;;
58918;SDS011;44704;50.122;19.932;2023-02-08T15:33:47;21.70;;;11.00;;
58918;SDS011;44704;50.122;19.932;2023-02-08T15:36:17;18.20;;;10.50;;
58918;SDS011;44704;50.122;19.932;2023-02-08T15:38:50;21.10;;;12.90;;
58918;SDS011;44704;50.122;19.932;2023-02-08T15:41:25;20.40;;;11.60;;
58918;SDS011;44704;50.122;19.932;2023-02-08T15:44:00;19.70;;;11.60;;
58918;SDS011;44704;50.122;19.932;2023-02-08T15:49:01;23.90;;;12.60;;
58918;SDS011;44704;50.122;19.932;2023-02-08T15:51:28;22.80;;;12.10;;
58918;SDS011;44704;50.122;19.932;2023-02-08T15:53:55;23.40;;;13.20;;
58918;SDS011;44704;50.122;19.932;2023-02-08T15:56:27;22.60;;;13.60;;
58918;SDS011;44704;50.122;19.932;2023-02-08T15:58:58;27.20;;;14.60;;
58918;SDS011;44704;50.122;19.932;2023-02-08T16:03:56;27.70;;;12.90;;
58918;SDS011;44704;50.122;19.932;2023-02-08T16:06:26;28.50;;;14.90;;
58918;SDS011;44704;50.122;19.932;2023-02-08T16:08:56;30.10;;;16.00;;
58918;SDS011;44704;50.122;19.932;2023-02-08T16:11:34;31.30;;;15.70;;
58918;SDS011;44704;50.122;19.932;2023-02-08T16:14:02;32.10;;;15.60;;
58918;SDS011;44704;50.122;19.932;2023-02-08T16:21:39;37.90;;;17.60;;
58918;SDS011;44704;50.122;19.932;2023-02-08T16:26:41;41.80;;;21.30;;
58918;SDS011;44704;50.122;19.932;2023-02-08T16:29:18;35.60;;;19.20;;
58918;SDS011;44704;50.122;19.932;2023-02-08T16:32:01;41.50;;;21.60;;
58918;SDS011;44704;50.122;19.932;2023-02-08T16:34:35;45.90;;;22.70;;
58918;SDS011;44704;50.122;19.932;2023-02-08T16:37:04;37.00;;;20.10;;
58918;SDS011;44704;50.122;19.932;2023-02-08T16:39:50;41.80;;;21.90;;
58918;SDS011;44704;50.122;19.932;2023-02-08T16:42:34;37.00;;;20.00;;
58918;SDS011;44704;50.122;19.932;2023-02-08T16:45:18;36.70;;;19.60;;
58918;SDS011;44704;50.122;19.932;2023-02-08T16:50:14;35.10;;;18.40;;
58918;SDS011;44704;50.122;19.932;2023-02-08T16:52:45;36.20;;;17.50;;
58918;SDS011;44704;50.122;19.932;2023-02-08T16:55:19;34.10;;;17.50;;
58918;SDS011;44704;50.122;19.932;2023-02-08T16:57:51;36.10;;;17.80;;
58918;SDS011;44704;50.122;19.932;2023-02-08T17:00:22;34.70;;;17.10;;
58918;SDS011;44704;50.122;19.932;2023-02-08T17:02:52;32.10;;;17.70;;
58918;SDS011;44704;50.122;19.932;2023-02-08T17:05:21;39.10;;;19.30;;
58918;SDS011;44704;50.122;19.932;2023-02-08T17:07:50;38.50;;;19.90;;